sensor_id;sensor_type;location;lat;lon;timestamp;P1;durP1;ratioP1;P2;durP2;ratioP2
74309;SDS011;62722;51.142;17.052;2023-03-01T00:01:12;49.00;;;20.40;;
74309;SDS011;62722;51.142;17.052;2023-03-01T00:03:42;47.70;;;19.55;;
74309;SDS011;62722;51.142;17.052;2023-03-01T00:06:10;48.85;;;19.00;;
74309;SDS011;62722;51.142;17.052;2023-03-01T00:08:38;50.00;;;19.92;;
74309;SDS011;62722;51.142;17.052;2023-03-01T00:11:06;49.05;;;19.35;;
74309;SDS011;62722;51.142;17.052;2023-03-01T00:13:37;45.28;;;18.63;;
74309;SDS011;62722;51.142;17.052;2023-03-01T00:16:05;46.78;;;18.02;;
74309;SDS011;62722;51.142;17.052;2023-03-01T00:18:34;46.40;;;18.17;;
74309;SDS011;62722;51.142;17.052;2023-03-01T00:21:03;46.55;;;18.13;;
74309;SDS011;62722;51.142;17.052;2023-03-01T00:23:31;48.28;;;18.58;;
74309;SDS011;62722;51.142;17.052;2023-03-01T00:26:00;48.45;;;18.13;;
74309;SDS011;62722;51.142;17.052;2023-03-01T00:28:28;47.47;;;17.77;;
74309;SDS011;62722;51.142;17.052;2023-03-01T00:30:55;57.83;;;19.90;;
74309;SDS011;62722;51.142;17.052;2023-03-01T00:33:22;49.60;;;19.73;;
74309;SDS011;62722;51.142;17.052;2023-03-01T00:35:50;48.50;;;19.63;;
74309;SDS011;62722;51.142;17.052;2023-03-01T00:38:18;48.72;;;20.05;;
74309;SDS011;62722;51.142;17.052;2023-03-01T00:40:46;44.80;;;18.45;;
74309;SDS011;62722;51.142;17.052;2023-03-01T00:43:13;49.35;;;18.00;;
74309;SDS011;62722;51.142;17.052;2023-03-01T00:45:40;48.33;;;17.67;;
74309;SDS011;62722;51.142;17.052;2023-03-01T00:48:08;48.47;;;18.80;;
74309;SDS011;62722;51.142;17.052;2023-03-01T00:50:35;47.72;;;18.73;;
74309;SDS011;62722;51.142;17.052;2023-03-01T00:53:03;48.72;;;18.35;;
74309;SDS011;62722;51.142;17.052;2023-03-01T00:55:33;45.58;;;17.38;;
74309;SDS011;62722;51.142;17.052;2023-03-01T00:58:00;48.10;;;17.40;;
74309;SDS011;62722;51.142;17.052;2023-03-01T01:00:28;51.20;;;18.65;;
74309;SDS011;62722;51.142;17.052;2023-03-01T01:02:55;47.30;;;17.48;;
74309;SDS011;62722;51.142;17.052;2023-03-01T01:05:22;46.95;;;17.83;;
74309;SDS011;62722;51.142;17.052;2023-03-01T01:07:50;49.45;;;18.73;;
74309;SDS011;62722;51.142;17.052;2023-03-01T01:10:17;45.88;;;17.60;;
74309;SDS011;62722;51.142;17.052;2023-03-01T01:12:46;49.88;;;19.30;;
74309;SDS011;62722;51.142;17.052;2023-03-01T01:15:13;43.25;;;17.92;;
74309;SDS011;62722;51.142;17.052;2023-03-01T01:17:42;46.50;;;17.65;;
74309;SDS011;62722;51.142;17.052;2023-03-01T01:20:10;44.65;;;18.35;;
74309;SDS011;62722;51.142;17.052;2023-03-01T01:22:38;50.92;;;18.48;;
74309;SDS011;62722;51.142;17.052;2023-03-01T01:25:05;47.00;;;19.42;;
74309;SDS011;62722;51.142;17.052;2023-03-01T01:27:34;48.53;;;20.02;;
74309;SDS011;62722;51.142;17.052;2023-03-01T01:30:03;55.78;;;21.88;;
74309;SDS011;62722;51.142;17.052;2023-03-01T01:32:31;54.22;;;20.40;;
74309;SDS011;62722;51.142;17.052;2023-03-01T01:34:58;54.15;;;19.60;;
74309;SDS011;62722;51.142;17.052;2023-03-01T01:37:25;50.22;;;21.13;;
74309;SDS011;62722;51.142;17.052;2023-03-01T01:39:56;58.00;;;21.58;;
74309;SDS011;62722;51.142;17.052;2023-03-01T01:42:24;58.40;;;21.17;;
74309;SDS011;62722;51.142;17.052;2023-03-01T01:47:52;58.35;;;21.25;;
74309;SDS011;62722;51.142;17.052;2023-03-01T01:50:22;53.97;;;21.10;;
74309;SDS011;62722;51.142;17.052;2023-03-01T01:52:50;59.53;;;22.23;;
74309;SDS011;62722;51.142;17.052;2023-03-01T01:55:20;56.05;;;21.30;;
74309;SDS011;62722;51.142;17.052;2023-03-01T01:57:51;58.95;;;22.83;;
74309;SDS011;62722;51.142;17.052;2023-03-01T02:00:27;66.18;;;23.20;;
74309;SDS011;62722;51.142;17.052;2023-03-01T02:02:56;62.45;;;23.63;;
74309;SDS011;62722;51.142;17.052;2023-03-01T02:05:28;52.72;;;22.52;;
74309;SDS011;62722;51.142;17.052;2023-03-01T02:08:04;55.90;;;22.10;;
74309;SDS011;62722;51.142;17.052;2023-03-01T02:10:32;64.10;;;23.27;;
74309;SDS011;62722;51.142;17.052;2023-03-01T02:13:01;63.00;;;23.38;;
74309;SDS011;62722;51.142;17.052;2023-03-01T02:15:34;65.80;;;23.20;;
74309;SDS011;62722;51.142;17.052;2023-03-01T02:18:03;67.30;;;23.52;;
74309;SDS011;62722;51.142;17.052;2023-03-01T02:20:33;63.17;;;23.15;;
74309;SDS011;62722;51.142;17.052;2023-03-01T02:23:07;57.22;;;23.15;;
74309;SDS011;62722;51.142;17.052;2023-03-01T02:25:38;66.90;;;25.17;;
74309;SDS011;62722;51.142;17.052;2023-03-01T02:28:20;62.60;;;22.42;;
74309;SDS011;62722;51.142;17.052;2023-03-01T02:30:50;61.97;;;22.88;;
74309;SDS011;62722;51.142;17.052;2023-03-01T02:33:36;61.75;;;24.33;;
74309;SDS011;62722;51.142;17.052;2023-03-01T02:36:06;62.25;;;22.63;;
74309;SDS011;62722;51.142;17.052;2023-03-01T02:38:37;60.20;;;22.70;;
74309;SDS011;62722;51.142;17.052;2023-03-01T02:41:04;61.78;;;21.40;;
74309;SDS011;62722;51.142;17.052;2023-03-01T02:43:35;64.97;;;24.90;;
74309;SDS011;62722;51.142;17.052;2023-03-01T02:46:04;62.15;;;23.23;;
74309;SDS011;62722;51.142;17.052;2023-03-01T02:48:39;66.75;;;23.98;;
74309;SDS011;62722;51.142;17.052;2023-03-01T02:51:10;54.72;;;22.95;;
74309;SDS011;62722;51.142;17.052;2023-03-01T02:53:49;57.58;;;22.02;;
74309;SDS011;62722;51.142;17.052;2023-03-01T02:56:25;63.50;;;23.58;;
74309;SDS011;62722;51.142;17.052;2023-03-01T02:58:54;60.80;;;22.63;;
74309;SDS011;62722;51.142;17.052;2023-03-01T03:01:26;55.65;;;20.70;;
74309;SDS011;62722;51.142;17.052;2023-03-01T03:04:02;59.65;;;21.90;;
74309;SDS011;62722;51.142;17.052;2023-03-01T03:06:30;62.50;;;22.48;;
74309;SDS011;62722;51.142;17.052;2023-03-01T03:08:58;66.10;;;23.63;;
74309;SDS011;62722;51.142;17.052;2023-03-01T03:11:25;55.47;;;22.77;;
74309;SDS011;62722;51.142;17.052;2023-03-01T03:13:54;57.50;;;20.95;;
74309;SDS011;62722;51.142;17.052;2023-03-01T03:16:23;65.95;;;21.88;;
74309;SDS011;62722;51.142;17.052;2023-03-01T03:18:50;56.90;;;21.77;;
74309;SDS011;62722;51.142;17.052;2023-03-01T03:21:17;57.85;;;22.27;;
74309;SDS011;62722;51.142;17.052;2023-03-01T03:23:45;57.47;;;22.58;;
74309;SDS011;62722;51.142;17.052;2023-03-01T03:26:12;57.03;;;24.13;;
74309;SDS011;62722;51.142;17.052;2023-03-01T03:28:40;67.50;;;22.63;;
74309;SDS011;62722;51.142;17.052;2023-03-01T03:31:09;60.53;;;23.40;;
74309;SDS011;62722;51.142;17.052;2023-03-01T03:33:36;55.72;;;22.92;;
74309;SDS011;62722;51.142;17.052;2023-03-01T03:36:04;58.72;;;21.40;;
74309;SDS011;62722;51.142;17.052;2023-03-01T03:38:32;60.10;;;22.27;;
74309;SDS011;62722;51.142;17.052;2023-03-01T03:41:00;61.90;;;23.92;;
74309;SDS011;62722;51.142;17.052;2023-03-01T03:43:29;55.88;;;21.48;;
74309;SDS011;62722;51.142;17.052;2023-03-01T03:45:57;64.60;;;21.15;;
74309;SDS011;62722;51.142;17.052;2023-03-01T03:48:27;61.10;;;22.95;;
74309;SDS011;62722;51.142;17.052;2023-03-01T03:50:55;60.95;;;22.88;;
74309;SDS011;62722;51.142;17.052;2023-03-01T03:53:23;62.92;;;22.77;;
74309;SDS011;62722;51.142;17.052;2023-03-01T03:55:52;63.67;;;24.23;;
74309;SDS011;62722;51.142;17.052;2023-03-01T03:58:20;57.38;;;22.15;;
74309;SDS011;62722;51.142;17.052;2023-03-01T04:00:50;58.72;;;24.20;;
74309;SDS011;62722;51.142;17.052;2023-03-01T04:03:22;62.95;;;22.92;;
74309;SDS011;62722;51.142;17.052;2023-03-01T04:05:51;57.90;;;23.10;;
74309;SDS011;62722;51.142;17.052;2023-03-01T04:08:19;61.50;;;23.70;;
74309;SDS011;62722;51.142;17.052;2023-03-01T04:10:49;66.38;;;23.92;;
74309;SDS011;62722;51.142;17.052;2023-03-01T04:13:18;57.75;;;22.90;;
74309;SDS011;62722;51.142;17.052;2023-03-01T04:15:47;64.68;;;24.45;;
74309;SDS011;62722;51.142;17.052;2023-03-01T04:18:16;59.38;;;21.88;;
74309;SDS011;62722;51.142;17.052;2023-03-01T04:20:45;69.10;;;25.38;;
74309;SDS011;62722;51.142;17.052;2023-03-01T04:23:15;64.88;;;23.75;;
74309;SDS011;62722;51.142;17.052;2023-03-01T04:25:46;60.40;;;23.58;;
74309;SDS011;62722;51.142;17.052;2023-03-01T04:28:19;64.72;;;24.73;;
74309;SDS011;62722;51.142;17.052;2023-03-01T04:30:47;65.07;;;25.88;;
74309;SDS011;62722;51.142;17.052;2023-03-01T04:33:14;72.38;;;27.02;;
74309;SDS011;62722;51.142;17.052;2023-03-01T04:35:42;65.88;;;25.02;;
74309;SDS011;62722;51.142;17.052;2023-03-01T04:38:09;70.45;;;25.33;;
74309;SDS011;62722;51.142;17.052;2023-03-01T04:40:38;70.25;;;25.42;;
74309;SDS011;62722;51.142;17.052;2023-03-01T04:43:08;70.63;;;26.17;;
74309;SDS011;62722;51.142;17.052;2023-03-01T04:45:36;69.93;;;25.88;;
74309;SDS011;62722;51.142;17.052;2023-03-01T04:48:04;67.50;;;26.58;;
74309;SDS011;62722;51.142;17.052;2023-03-01T04:50:31;76.63;;;29.00;;
74309;SDS011;62722;51.142;17.052;2023-03-01T04:52:59;74.28;;;28.63;;
74309;SDS011;62722;51.142;17.052;2023-03-01T04:55:27;69.13;;;25.67;;
74309;SDS011;62722;51.142;17.052;2023-03-01T04:57:56;64.40;;;25.45;;
74309;SDS011;62722;51.142;17.052;2023-03-01T05:00:23;70.10;;;26.73;;
74309;SDS011;62722;51.142;17.052;2023-03-01T05:02:52;63.67;;;25.23;;
74309;SDS011;62722;51.142;17.052;2023-03-01T05:05:21;63.33;;;26.50;;
74309;SDS011;62722;51.142;17.052;2023-03-01T05:07:54;71.57;;;27.67;;
74309;SDS011;62722;51.142;17.052;2023-03-01T05:10:23;62.42;;;24.60;;
74309;SDS011;62722;51.142;17.052;2023-03-01T05:12:51;65.68;;;24.17;;
74309;SDS011;62722;51.142;17.052;2023-03-01T05:15:20;65.85;;;24.52;;
74309;SDS011;62722;51.142;17.052;2023-03-01T05:17:50;62.85;;;24.85;;
74309;SDS011;62722;51.142;17.052;2023-03-01T05:20:18;71.57;;;25.30;;
74309;SDS011;62722;51.142;17.052;2023-03-01T05:22:48;62.15;;;25.58;;
74309;SDS011;62722;51.142;17.052;2023-03-01T05:25:15;68.10;;;24.35;;
74309;SDS011;62722;51.142;17.052;2023-03-01T05:27:43;65.03;;;24.05;;
74309;SDS011;62722;51.142;17.052;2023-03-01T05:30:11;61.78;;;22.17;;
74309;SDS011;62722;51.142;17.052;2023-03-01T05:32:45;58.53;;;24.98;;
74309;SDS011;62722;51.142;17.052;2023-03-01T05:35:14;67.97;;;24.90;;
74309;SDS011;62722;51.142;17.052;2023-03-01T05:37:43;65.05;;;23.70;;
74309;SDS011;62722;51.142;17.052;2023-03-01T05:40:12;65.57;;;25.60;;
74309;SDS011;62722;51.142;17.052;2023-03-01T05:42:42;64.57;;;25.77;;
74309;SDS011;62722;51.142;17.052;2023-03-01T05:45:10;64.30;;;23.55;;
74309;SDS011;62722;51.142;17.052;2023-03-01T05:47:39;64.15;;;25.02;;
74309;SDS011;62722;51.142;17.052;2023-03-01T05:50:12;62.15;;;24.73;;
74309;SDS011;62722;51.142;17.052;2023-03-01T05:52:44;60.63;;;25.38;;
74309;SDS011;62722;51.142;17.052;2023-03-01T05:55:12;62.47;;;24.90;;
74309;SDS011;62722;51.142;17.052;2023-03-01T05:57:40;63.22;;;25.75;;
74309;SDS011;62722;51.142;17.052;2023-03-01T06:00:08;62.85;;;24.70;;
74309;SDS011;62722;51.142;17.052;2023-03-01T06:02:36;69.25;;;24.42;;
74309;SDS011;62722;51.142;17.052;2023-03-01T06:05:04;67.22;;;24.63;;
74309;SDS011;62722;51.142;17.052;2023-03-01T06:07:33;62.60;;;25.67;;
74309;SDS011;62722;51.142;17.052;2023-03-01T06:10:01;57.92;;;23.08;;
74309;SDS011;62722;51.142;17.052;2023-03-01T06:12:30;60.33;;;23.90;;
74309;SDS011;62722;51.142;17.052;2023-03-01T06:14:58;68.78;;;24.85;;
74309;SDS011;62722;51.142;17.052;2023-03-01T06:17:25;56.65;;;23.80;;
74309;SDS011;62722;51.142;17.052;2023-03-01T06:19:55;61.50;;;24.58;;
74309;SDS011;62722;51.142;17.052;2023-03-01T06:22:23;62.88;;;24.48;;
74309;SDS011;62722;51.142;17.052;2023-03-01T06:24:52;64.05;;;25.35;;
74309;SDS011;62722;51.142;17.052;2023-03-01T06:27:19;63.22;;;23.88;;
74309;SDS011;62722;51.142;17.052;2023-03-01T06:29:47;59.80;;;22.65;;
74309;SDS011;62722;51.142;17.052;2023-03-01T06:32:14;60.13;;;23.00;;
74309;SDS011;62722;51.142;17.052;2023-03-01T06:34:41;59.92;;;22.48;;
74309;SDS011;62722;51.142;17.052;2023-03-01T06:37:08;61.03;;;22.67;;
74309;SDS011;62722;51.142;17.052;2023-03-01T06:39:36;53.55;;;22.88;;
74309;SDS011;62722;51.142;17.052;2023-03-01T06:42:05;50.85;;;22.13;;
74309;SDS011;62722;51.142;17.052;2023-03-01T06:44:35;58.80;;;22.30;;
74309;SDS011;62722;51.142;17.052;2023-03-01T06:47:02;59.42;;;23.10;;
74309;SDS011;62722;51.142;17.052;2023-03-01T06:49:30;57.58;;;24.05;;
74309;SDS011;62722;51.142;17.052;2023-03-01T06:51:57;63.75;;;24.50;;
74309;SDS011;62722;51.142;17.052;2023-03-01T06:54:25;57.13;;;23.05;;
74309;SDS011;62722;51.142;17.052;2023-03-01T06:56:52;63.08;;;26.42;;
74309;SDS011;62722;51.142;17.052;2023-03-01T06:59:21;66.72;;;25.40;;
74309;SDS011;62722;51.142;17.052;2023-03-01T07:01:48;61.20;;;24.77;;
74309;SDS011;62722;51.142;17.052;2023-03-01T07:04:15;64.15;;;26.00;;
74309;SDS011;62722;51.142;17.052;2023-03-01T07:06:43;58.47;;;25.05;;
74309;SDS011;62722;51.142;17.052;2023-03-01T07:09:10;68.03;;;24.85;;
74309;SDS011;62722;51.142;17.052;2023-03-01T07:11:37;63.90;;;24.40;;
74309;SDS011;62722;51.142;17.052;2023-03-01T07:14:05;63.33;;;22.95;;
74309;SDS011;62722;51.142;17.052;2023-03-01T07:16:34;60.78;;;24.10;;
74309;SDS011;62722;51.142;17.052;2023-03-01T07:19:01;61.72;;;23.67;;
74309;SDS011;62722;51.142;17.052;2023-03-01T07:21:28;58.47;;;22.40;;
74309;SDS011;62722;51.142;17.052;2023-03-01T07:23:56;60.28;;;23.55;;
74309;SDS011;62722;51.142;17.052;2023-03-01T07:26:23;60.90;;;23.77;;
74309;SDS011;62722;51.142;17.052;2023-03-01T07:28:51;53.80;;;22.00;;
74309;SDS011;62722;51.142;17.052;2023-03-01T07:31:18;50.95;;;21.33;;
74309;SDS011;62722;51.142;17.052;2023-03-01T07:33:47;56.85;;;21.98;;
74309;SDS011;62722;51.142;17.052;2023-03-01T07:36:14;54.78;;;21.92;;
74309;SDS011;62722;51.142;17.052;2023-03-01T07:38:42;53.97;;;21.05;;
74309;SDS011;62722;51.142;17.052;2023-03-01T07:41:09;47.15;;;21.73;;
74309;SDS011;62722;51.142;17.052;2023-03-01T07:43:36;50.17;;;21.02;;
74309;SDS011;62722;51.142;17.052;2023-03-01T07:46:04;51.17;;;21.85;;
74309;SDS011;62722;51.142;17.052;2023-03-01T07:48:32;52.65;;;22.05;;
74309;SDS011;62722;51.142;17.052;2023-03-01T07:51:01;58.22;;;22.08;;
74309;SDS011;62722;51.142;17.052;2023-03-01T07:53:30;52.25;;;22.52;;
74309;SDS011;62722;51.142;17.052;2023-03-01T07:56:03;50.78;;;21.95;;
74309;SDS011;62722;51.142;17.052;2023-03-01T07:58:33;45.95;;;20.20;;
74309;SDS011;62722;51.142;17.052;2023-03-01T08:01:01;50.00;;;20.73;;
74309;SDS011;62722;51.142;17.052;2023-03-01T08:03:29;48.40;;;19.65;;
74309;SDS011;62722;51.142;17.052;2023-03-01T08:05:58;45.53;;;19.58;;
74309;SDS011;62722;51.142;17.052;2023-03-01T08:08:28;54.47;;;20.60;;
74309;SDS011;62722;51.142;17.052;2023-03-01T08:10:55;42.60;;;17.88;;
74309;SDS011;62722;51.142;17.052;2023-03-01T08:13:23;39.53;;;16.52;;
74309;SDS011;62722;51.142;17.052;2023-03-01T08:15:51;37.03;;;14.70;;
74309;SDS011;62722;51.142;17.052;2023-03-01T08:18:19;37.42;;;14.60;;
74309;SDS011;62722;51.142;17.052;2023-03-01T08:20:47;32.35;;;13.75;;
74309;SDS011;62722;51.142;17.052;2023-03-01T08:23:16;34.65;;;13.90;;
74309;SDS011;62722;51.142;17.052;2023-03-01T08:25:43;36.72;;;13.80;;
74309;SDS011;62722;51.142;17.052;2023-03-01T08:28:11;29.67;;;12.52;;
74309;SDS011;62722;51.142;17.052;2023-03-01T08:30:38;34.38;;;13.93;;
74309;SDS011;62722;51.142;17.052;2023-03-01T08:33:05;24.67;;;10.55;;
74309;SDS011;62722;51.142;17.052;2023-03-01T08:35:32;22.85;;;10.55;;
74309;SDS011;62722;51.142;17.052;2023-03-01T08:38:00;33.10;;;13.20;;
74309;SDS011;62722;51.142;17.052;2023-03-01T08:40:28;41.17;;;16.40;;
74309;SDS011;62722;51.142;17.052;2023-03-01T08:42:58;40.33;;;15.80;;
74309;SDS011;62722;51.142;17.052;2023-03-01T08:45:25;35.38;;;14.15;;
74309;SDS011;62722;51.142;17.052;2023-03-01T08:47:52;38.38;;;15.40;;
74309;SDS011;62722;51.142;17.052;2023-03-01T08:50:19;38.95;;;14.98;;
74309;SDS011;62722;51.142;17.052;2023-03-01T08:52:48;37.67;;;14.05;;
74309;SDS011;62722;51.142;17.052;2023-03-01T08:55:15;34.38;;;14.43;;
74309;SDS011;62722;51.142;17.052;2023-03-01T08:57:44;32.92;;;14.18;;
74309;SDS011;62722;51.142;17.052;2023-03-01T09:00:12;32.40;;;14.55;;
74309;SDS011;62722;51.142;17.052;2023-03-01T09:02:41;36.10;;;14.82;;
74309;SDS011;62722;51.142;17.052;2023-03-01T09:05:08;30.50;;;14.07;;
74309;SDS011;62722;51.142;17.052;2023-03-01T09:07:36;31.80;;;14.25;;
74309;SDS011;62722;51.142;17.052;2023-03-01T09:10:03;31.50;;;13.32;;
74309;SDS011;62722;51.142;17.052;2023-03-01T09:12:31;31.23;;;12.73;;
74309;SDS011;62722;51.142;17.052;2023-03-01T09:15:00;28.10;;;13.25;;
74309;SDS011;62722;51.142;17.052;2023-03-01T09:17:28;28.27;;;11.43;;
74309;SDS011;62722;51.142;17.052;2023-03-01T09:19:55;27.02;;;11.15;;
74309;SDS011;62722;51.142;17.052;2023-03-01T09:22:23;28.08;;;11.57;;
74309;SDS011;62722;51.142;17.052;2023-03-01T09:24:50;28.70;;;13.05;;
74309;SDS011;62722;51.142;17.052;2023-03-01T09:27:17;33.63;;;13.50;;
74309;SDS011;62722;51.142;17.052;2023-03-01T09:29:46;24.63;;;11.73;;
74309;SDS011;62722;51.142;17.052;2023-03-01T09:32:15;33.08;;;12.13;;
74309;SDS011;62722;51.142;17.052;2023-03-01T09:34:42;31.05;;;12.27;;
74309;SDS011;62722;51.142;17.052;2023-03-01T09:37:30;24.75;;;11.10;;
74309;SDS011;62722;51.142;17.052;2023-03-01T09:39:58;30.08;;;12.25;;
74309;SDS011;62722;51.142;17.052;2023-03-01T09:42:27;28.70;;;11.85;;
74309;SDS011;62722;51.142;17.052;2023-03-01T09:44:59;26.02;;;11.82;;
74309;SDS011;62722;51.142;17.052;2023-03-01T09:47:31;21.15;;;10.40;;
74309;SDS011;62722;51.142;17.052;2023-03-01T09:52:34;25.95;;;11.27;;
74309;SDS011;62722;51.142;17.052;2023-03-01T09:55:11;25.23;;;11.20;;
74309;SDS011;62722;51.142;17.052;2023-03-01T09:57:42;23.77;;;10.25;;
74309;SDS011;62722;51.142;17.052;2023-03-01T10:00:17;29.10;;;11.73;;
74309;SDS011;62722;51.142;17.052;2023-03-01T10:02:57;20.00;;;9.80;;
74309;SDS011;62722;51.142;17.052;2023-03-01T10:05:37;24.75;;;10.90;;
74309;SDS011;62722;51.142;17.052;2023-03-01T10:08:19;27.65;;;10.90;;
74309;SDS011;62722;51.142;17.052;2023-03-01T10:10:56;18.80;;;9.15;;
74309;SDS011;62722;51.142;17.052;2023-03-01T10:13:27;21.20;;;9.90;;
74309;SDS011;62722;51.142;17.052;2023-03-01T10:16:00;25.55;;;12.77;;
74309;SDS011;62722;51.142;17.052;2023-03-01T10:18:33;23.98;;;10.68;;
74309;SDS011;62722;51.142;17.052;2023-03-01T10:21:08;25.17;;;10.07;;
74309;SDS011;62722;51.142;17.052;2023-03-01T10:23:41;25.38;;;11.13;;
74309;SDS011;62722;51.142;17.052;2023-03-01T10:26:11;22.30;;;9.88;;
74309;SDS011;62722;51.142;17.052;2023-03-01T10:28:50;24.55;;;9.70;;
74309;SDS011;62722;51.142;17.052;2023-03-01T10:31:26;24.73;;;10.27;;
74309;SDS011;62722;51.142;17.052;2023-03-01T10:34:04;21.27;;;10.02;;
74309;SDS011;62722;51.142;17.052;2023-03-01T10:39:10;23.77;;;9.65;;
74309;SDS011;62722;51.142;17.052;2023-03-01T10:41:44;28.80;;;10.77;;
74309;SDS011;62722;51.142;17.052;2023-03-01T10:47:04;28.00;;;10.38;;
74309;SDS011;62722;51.142;17.052;2023-03-01T10:49:34;23.98;;;10.60;;
74309;SDS011;62722;51.142;17.052;2023-03-01T10:52:11;23.42;;;10.48;;
74309;SDS011;62722;51.142;17.052;2023-03-01T10:54:50;21.27;;;9.95;;
74309;SDS011;62722;51.142;17.052;2023-03-01T10:57:27;23.17;;;10.88;;
74309;SDS011;62722;51.142;17.052;2023-03-01T11:02:50;22.15;;;10.35;;
74309;SDS011;62722;51.142;17.052;2023-03-01T11:05:30;25.10;;;9.57;;
74309;SDS011;62722;51.142;17.052;2023-03-01T11:07:59;21.23;;;10.13;;
74309;SDS011;62722;51.142;17.052;2023-03-01T11:10:29;25.02;;;10.10;;
74309;SDS011;62722;51.142;17.052;2023-03-01T11:13:07;20.70;;;8.73;;
74309;SDS011;62722;51.142;17.052;2023-03-01T11:18:24;21.25;;;8.77;;
74309;SDS011;62722;51.142;17.052;2023-03-01T11:20:55;20.75;;;9.57;;
74309;SDS011;62722;51.142;17.052;2023-03-01T11:23:24;20.30;;;9.25;;
74309;SDS011;62722;51.142;17.052;2023-03-01T11:25:55;23.00;;;9.30;;
74309;SDS011;62722;51.142;17.052;2023-03-01T11:28:25;21.13;;;9.38;;
74309;SDS011;62722;51.142;17.052;2023-03-01T11:30:56;21.27;;;8.50;;
74309;SDS011;62722;51.142;17.052;2023-03-01T11:33:30;18.83;;;8.75;;
74309;SDS011;62722;51.142;17.052;2023-03-01T11:36:07;16.80;;;8.25;;
74309;SDS011;62722;51.142;17.052;2023-03-01T11:38:42;20.15;;;8.48;;
74309;SDS011;62722;51.142;17.052;2023-03-01T11:41:12;17.02;;;8.80;;
74309;SDS011;62722;51.142;17.052;2023-03-01T11:43:48;16.02;;;8.35;;
74309;SDS011;62722;51.142;17.052;2023-03-01T11:49:20;19.75;;;8.50;;
74309;SDS011;62722;51.142;17.052;2023-03-01T11:52:04;19.98;;;9.88;;
74309;SDS011;62722;51.142;17.052;2023-03-01T11:54:45;22.02;;;8.73;;
74309;SDS011;62722;51.142;17.052;2023-03-01T11:57:31;24.63;;;11.07;;
74309;SDS011;62722;51.142;17.052;2023-03-01T12:00:14;19.27;;;8.18;;
74309;SDS011;62722;51.142;17.052;2023-03-01T12:02:58;25.88;;;11.25;;
74309;SDS011;62722;51.142;17.052;2023-03-01T12:05:52;16.65;;;8.65;;
74309;SDS011;62722;51.142;17.052;2023-03-01T12:08:32;19.50;;;8.95;;
74309;SDS011;62722;51.142;17.052;2023-03-01T12:11:07;19.80;;;8.15;;
74309;SDS011;62722;51.142;17.052;2023-03-01T12:13:46;18.58;;;8.95;;
74309;SDS011;62722;51.142;17.052;2023-03-01T12:16:29;19.08;;;8.90;;
74309;SDS011;62722;51.142;17.052;2023-03-01T12:19:15;17.73;;;7.45;;
74309;SDS011;62722;51.142;17.052;2023-03-01T12:22:01;18.15;;;7.85;;
74309;SDS011;62722;51.142;17.052;2023-03-01T12:27:51;14.13;;;6.72;;
74309;SDS011;62722;51.142;17.052;2023-03-01T12:30:34;13.43;;;5.93;;
74309;SDS011;62722;51.142;17.052;2023-03-01T12:33:14;10.75;;;5.82;;
74309;SDS011;62722;51.142;17.052;2023-03-01T12:35:52;12.70;;;5.15;;
74309;SDS011;62722;51.142;17.052;2023-03-01T12:38:32;12.30;;;5.50;;
74309;SDS011;62722;51.142;17.052;2023-03-01T12:44:09;13.70;;;5.78;;
74309;SDS011;62722;51.142;17.052;2023-03-01T12:46:52;13.02;;;6.43;;
74309;SDS011;62722;51.142;17.052;2023-03-01T12:49:32;12.30;;;5.13;;
74309;SDS011;62722;51.142;17.052;2023-03-01T12:52:09;14.23;;;5.95;;
74309;SDS011;62722;51.142;17.052;2023-03-01T12:54:40;12.23;;;5.63;;
74309;SDS011;62722;51.142;17.052;2023-03-01T12:57:12;11.88;;;5.32;;
74309;SDS011;62722;51.142;17.052;2023-03-01T12:59:47;13.35;;;5.75;;
74309;SDS011;62722;51.142;17.052;2023-03-01T13:02:26;11.40;;;5.38;;
74309;SDS011;62722;51.142;17.052;2023-03-01T13:05:06;14.05;;;6.82;;
74309;SDS011;62722;51.142;17.052;2023-03-01T13:07:55;12.80;;;5.78;;
74309;SDS011;62722;51.142;17.052;2023-03-01T13:10:29;13.93;;;6.63;;
74309;SDS011;62722;51.142;17.052;2023-03-01T13:13:08;13.57;;;6.43;;
74309;SDS011;62722;51.142;17.052;2023-03-01T13:15:40;14.90;;;6.65;;
74309;SDS011;62722;51.142;17.052;2023-03-01T13:18:28;15.15;;;7.20;;
74309;SDS011;62722;51.142;17.052;2023-03-01T13:20:57;14.93;;;6.82;;
74309;SDS011;62722;51.142;17.052;2023-03-01T13:23:28;16.30;;;6.90;;
74309;SDS011;62722;51.142;17.052;2023-03-01T13:26:06;14.18;;;7.00;;
74309;SDS011;62722;51.142;17.052;2023-03-01T13:28:46;16.33;;;7.05;;
74309;SDS011;62722;51.142;17.052;2023-03-01T13:34:42;15.13;;;7.00;;
74309;SDS011;62722;51.142;17.052;2023-03-01T13:37:29;16.38;;;6.95;;
74309;SDS011;62722;51.142;17.052;2023-03-01T13:40:04;12.57;;;5.97;;
74309;SDS011;62722;51.142;17.052;2023-03-01T13:42:51;14.02;;;6.47;;
74309;SDS011;62722;51.142;17.052;2023-03-01T13:45:22;15.85;;;7.22;;
74309;SDS011;62722;51.142;17.052;2023-03-01T13:50:28;14.70;;;7.03;;
74309;SDS011;62722;51.142;17.052;2023-03-01T13:53:00;14.68;;;6.53;;
74309;SDS011;62722;51.142;17.052;2023-03-01T13:55:32;15.27;;;6.32;;
74309;SDS011;62722;51.142;17.052;2023-03-01T13:58:04;16.38;;;7.45;;
74309;SDS011;62722;51.142;17.052;2023-03-01T14:00:44;15.63;;;6.75;;
74309;SDS011;62722;51.142;17.052;2023-03-01T14:03:13;16.23;;;6.78;;
74309;SDS011;62722;51.142;17.052;2023-03-01T14:05:43;16.13;;;7.90;;
74309;SDS011;62722;51.142;17.052;2023-03-01T14:08:24;19.08;;;7.10;;
74309;SDS011;62722;51.142;17.052;2023-03-01T14:11:00;14.18;;;7.15;;
74309;SDS011;62722;51.142;17.052;2023-03-01T14:13:57;15.40;;;7.53;;
74309;SDS011;62722;51.142;17.052;2023-03-01T14:16:48;14.45;;;6.95;;
74309;SDS011;62722;51.142;17.052;2023-03-01T14:19:24;15.00;;;6.85;;
74309;SDS011;62722;51.142;17.052;2023-03-01T14:21:58;16.85;;;7.40;;
74309;SDS011;62722;51.142;17.052;2023-03-01T14:24:29;17.45;;;7.35;;
74309;SDS011;62722;51.142;17.052;2023-03-01T14:27:00;14.02;;;7.50;;
74309;SDS011;62722;51.142;17.052;2023-03-01T14:29:33;17.05;;;7.55;;
74309;SDS011;62722;51.142;17.052;2023-03-01T14:32:17;16.40;;;7.63;;
74309;SDS011;62722;51.142;17.052;2023-03-01T14:34:47;15.65;;;7.25;;
74309;SDS011;62722;51.142;17.052;2023-03-01T14:37:18;17.20;;;7.75;;
74309;SDS011;62722;51.142;17.052;2023-03-01T14:39:47;17.85;;;7.95;;
74309;SDS011;62722;51.142;17.052;2023-03-01T14:42:14;15.30;;;6.75;;
74309;SDS011;62722;51.142;17.052;2023-03-01T14:44:42;15.73;;;7.45;;
74309;SDS011;62722;51.142;17.052;2023-03-01T14:47:14;23.05;;;10.18;;
74309;SDS011;62722;51.142;17.052;2023-03-01T14:49:48;14.68;;;7.47;;
74309;SDS011;62722;51.142;17.052;2023-03-01T14:52:21;29.60;;;14.60;;
74309;SDS011;62722;51.142;17.052;2023-03-01T14:54:52;18.98;;;8.57;;
74309;SDS011;62722;51.142;17.052;2023-03-01T14:57:22;14.65;;;7.78;;
74309;SDS011;62722;51.142;17.052;2023-03-01T14:59:52;17.33;;;7.57;;
74309;SDS011;62722;51.142;17.052;2023-03-01T15:02:24;23.52;;;9.50;;
74309;SDS011;62722;51.142;17.052;2023-03-01T15:04:55;17.48;;;8.57;;